Time;durP1;ratioP1;P1;durP2;ratioP2;P2;SDS_P1;SDS_P2;PMS_P1;PMS_P2;Temp;Humidity;BMP_temperature;BMP_pressure;BME280_temperature;BME280_humidity;BME280_pressure;Samples;Min_cycle;Max_cycle;Signal;HPM_P1;HPM_P2
2022/08/18 00:02:15;;;;;;;10.00;6.17;;;;;;;18.87;100.00;101199.22;5031617;28;20468;-48
2022/08/18 00:04:45;;;;;;;6.57;6.10;;;;;;;18.87;100.00;101198.41;5032181;28;20475;-47
2022/08/18 00:07:18;;;;;;;6.77;6.37;;;;;;;18.86;100.00;101194.03;5031796;28;20989;-45
2022/08/18 00:09:46;;;;;;;7.60;6.87;;;;;;;18.83;100.00;101194.50;5032070;28;20423;-45
2022/08/18 00:12:17;;;;;;;7.33;6.87;;;;;;;18.79;100.00;101189.59;5031311;28;20464;-45
2022/08/18 00:14:46;;;;;;;8.40;7.60;;;;;;;18.83;100.00;101186.41;5032346;28;20430;-44
2022/08/18 00:17:15;;;;;;;8.30;7.60;;;;;;;18.84;100.00;101182.66;5031801;28;20469;-46
2022/08/18 00:19:43;;;;;;;8.30;7.70;;;;;;;18.85;100.00;101186.97;5032189;28;20435;-44
2022/08/18 00:22:16;;;;;;;11.23;7.90;;;;;;;18.79;100.00;101181.47;5031145;28;20476;-45
2022/08/18 00:24:46;;;;;;;17.60;7.80;;;;;;;18.82;100.00;101180.19;5031624;28;20475;-46
2022/08/18 00:27:20;;;;;;;8.60;7.83;;;;;;;18.84;100.00;101171.84;5031872;28;20829;-43
2022/08/18 00:29:52;;;;;;;11.40;8.43;;;;;;;18.85;100.00;101170.78;5031731;28;20432;-46
2022/08/18 00:32:23;;;;;;;9.67;8.70;;;;;;;18.88;100.00;101159.47;5031195;28;20806;-45
2022/08/18 00:34:51;;;;;;;9.80;9.00;;;;;;;18.84;100.00;101164.56;5031733;28;20778;-44
2022/08/18 00:37:19;;;;;;;8.97;8.10;;;;;;;18.84;100.00;101161.88;5031599;28;20459;-44
2022/08/18 00:39:47;;;;;;;9.40;8.03;;;;;;;18.88;100.00;101156.78;5031863;28;20431;-49
2022/08/18 00:42:17;;;;;;;9.63;8.67;;;;;;;18.89;100.00;101153.84;5031181;28;20466;-43
2022/08/18 00:45:01;;;;;;;9.93;8.23;;;;;;;18.91;100.00;101151.72;5031509;28;20474;-47
2022/08/18 00:47:29;;;;;;;9.93;8.80;;;;;;;18.96;100.00;101146.44;5031495;28;20461;-47
2022/08/18 00:50:14;;;;;;;9.30;8.33;;;;;;;18.99;100.00;101140.53;5031550;28;20913;-45
2022/08/18 00:52:47;;;;;;;10.13;8.43;;;;;;;19.02;100.00;101148.16;5030820;28;20534;-46
2022/08/18 00:55:16;;;;;;;12.23;9.30;;;;;;;19.04;100.00;101137.91;5031635;28;20435;-46
2022/08/18 00:57:48;;;;;;;15.33;9.57;;;;;;;19.06;100.00;101138.50;5031416;28;20460;-44
2022/08/18 01:00:18;;;;;;;13.60;9.40;;;;;;;19.08;100.00;101127.44;5031480;28;20463;-48
2022/08/18 01:02:50;;;;;;;10.10;9.03;;;;;;;19.08;100.00;101122.88;5031031;28;20472;-45
2022/08/18 01:05:22;;;;;;;13.57;10.17;;;;;;;19.13;100.00;101122.94;5031783;28;20475;-43
2022/08/18 01:07:51;;;;;;;14.63;11.37;;;;;;;19.16;100.00;101117.06;5031367;28;20444;-44
2022/08/18 01:10:21;;;;;;;14.60;10.80;;;;;;;19.17;100.00;101115.19;5031500;28;20443;-45
2022/08/18 01:12:52;;;;;;;14.90;9.87;;;;;;;19.17;100.00;101113.28;5030624;28;20474;-45
2022/08/18 01:15:22;;;;;;;11.70;10.70;;;;;;;19.20;100.00;101101.97;5031681;28;20431;-44
2022/08/18 01:23:47;;;;;;;12.47;11.27;;;;;;;19.28;100.00;101085.34;5034500;28;20774;-43
2022/08/18 01:26:17;;;;;;;13.83;11.63;;;;;;;19.29;100.00;101089.69;5035058;28;20477;-44
2022/08/18 01:28:48;;;;;;;16.63;11.43;;;;;;;19.31;100.00;101092.97;5035368;28;20428;-44
2022/08/18 01:31:33;;;;;;;15.10;11.53;;;;;;;19.33;100.00;101095.44;5034474;28;20423;-45
2022/08/18 01:34:01;;;;;;;13.47;12.23;;;;;;;19.32;100.00;101094.59;5035138;28;20435;-46
2022/08/18 01:36:29;;;;;;;12.87;11.57;;;;;;;19.32;100.00;101096.50;5035005;28;20444;-49
2022/08/18 01:38:58;;;;;;;17.43;11.97;;;;;;;19.32;100.00;101101.91;5034814;28;20430;-44
2022/08/18 01:41:25;;;;;;;11.80;10.70;;;;;;;19.30;100.00;101099.44;5034364;28;20535;-47
2022/08/18 01:43:58;;;;;;;14.00;9.90;;;;;;;19.30;100.00;101101.31;5034456;28;21210;-45
2022/08/18 01:46:27;;;;;;;13.43;11.67;;;;;;;19.33;100.00;101108.94;5034712;28;20475;-46
2022/08/18 01:48:57;;;;;;;13.93;11.87;;;;;;;19.32;100.00;101107.31;5034885;28;20431;-44
2022/08/18 01:51:25;;;;;;;13.23;11.90;;;;;;;19.31;100.00;101105.69;5034364;28;20459;-47
2022/08/18 01:54:11;;;;;;;13.37;11.93;;;;;;;19.31;100.00;101119.19;5034375;28;20435;-45
2022/08/18 01:56:39;;;;;;;14.23;12.80;;;;;;;19.33;100.00;101119.75;5034624;28;20973;-46
2022/08/18 01:59:09;;;;;;;14.90;13.50;;;;;;;19.34;100.00;101111.41;5034436;28;20929;-45
2022/08/18 02:01:38;;;;;;;19.80;14.27;;;;;;;19.36;100.00;101108.44;5034253;28;20462;-46
2022/08/18 02:04:17;;;;;;;14.63;13.30;;;;;;;19.37;100.00;101103.88;5034215;28;20423;-46
2022/08/18 02:07:03;;;;;;;16.40;14.53;;;;;;;19.37;100.00;101098.47;5034021;28;20482;-46
2022/08/18 02:09:32;;;;;;;16.00;14.40;;;;;;;19.36;100.00;101103.03;5034430;28;20431;-47
2022/08/18 02:12:01;;;;;;;16.33;14.70;;;;;;;19.34;100.00;101094.38;5033759;28;20817;-47
2022/08/18 02:14:29;;;;;;;17.57;15.40;;;;;;;19.34;100.00;101099.78;5034091;28;20430;-46
2022/08/18 02:16:59;;;;;;;19.73;17.77;;;;;;;19.30;100.00;101085.91;5033927;28;20463;-48
2022/08/18 02:19:33;;;;;;;19.43;17.60;;;;;;;19.28;100.00;101090.75;5033969;28;20439;-46
2022/08/18 02:22:01;;;;;;;20.77;18.60;;;;;;;19.28;100.00;101085.34;5033392;28;20799;-45
2022/08/18 02:24:29;;;;;;;23.57;18.20;;;;;;;19.28;100.00;101090.75;5033936;28;20438;-44
2022/08/18 02:26:59;;;;;;;22.43;18.10;;;;;;;19.27;100.00;101091.00;5033960;28;20478;-43
2022/08/18 02:29:26;;;;;;;19.27;17.27;;;;;;;19.26;100.00;101095.56;5033978;28;20963;-45
2022/08/18 02:31:54;;;;;;;19.10;17.00;;;;;;;19.24;100.00;101100.41;5033175;28;20462;-45
2022/08/18 02:34:22;;;;;;;19.37;16.63;;;;;;;19.26;100.00;101103.69;5033772;28;20527;-45
2022/08/18 02:36:50;;;;;;;16.87;15.23;;;;;;;19.28;100.00;101101.59;5033603;28;20452;-46
2022/08/18 02:39:17;;;;;;;19.20;16.40;;;;;;;19.28;100.00;101107.00;5033854;28;20424;-44
2022/08/18 02:41:45;;;;;;;16.57;14.87;;;;;;;19.28;100.00;101095.34;5033170;28;20965;-46
2022/08/18 02:44:14;;;;;;;14.63;13.23;;;;;;;19.26;100.00;101092.88;5033301;28;20439;-47
2022/08/18 02:46:42;;;;;;;16.17;12.80;;;;;;;19.25;100.00;101104.78;5033757;28;20482;-43
2022/08/18 02:49:09;;;;;;;17.80;12.60;;;;;;;19.23;100.00;101097.97;5033587;28;20436;-44
2022/08/18 02:51:37;;;;;;;13.33;11.57;;;;;;;19.26;100.00;101100.19;5033030;28;20451;-45
2022/08/18 02:54:08;;;;;;;12.23;11.13;;;;;;;19.27;100.00;101109.91;5033398;28;20424;-44
2022/08/18 02:56:36;;;;;;;12.30;11.10;;;;;;;19.30;100.00;101112.13;5033244;28;20475;-44
2022/08/18 02:59:10;;;;;;;10.47;9.57;;;;;;;19.32;100.00;101105.41;5033223;28;20805;-43
2022/08/18 03:01:43;;;;;;;11.83;10.73;;;;;;;19.36;100.00;101105.75;5033025;28;20483;-47
2022/08/18 03:04:14;;;;;;;22.80;11.70;;;;;;;19.38;100.00;101105.53;5033155;28;20420;-45
2022/08/18 03:06:43;;;;;;;11.40;10.50;;;;;;;19.39;100.00;101104.44;5033025;28;20888;-43
2022/08/18 03:09:13;;;;;;;12.53;11.00;;;;;;;19.39;100.00;101099.03;5033129;28;20873;-44
2022/08/18 03:11:41;;;;;;;13.63;11.30;;;;;;;19.40;100.00;101098.00;5032975;28;20471;-44
2022/08/18 03:14:11;;;;;;;11.00;9.60;;;;;;;19.40;100.00;101100.72;5032975;28;20428;-43
2022/08/18 03:16:41;;;;;;;13.50;10.00;;;;;;;19.41;100.00;101105.88;5032893;28;20856;-44
2022/08/18 03:19:22;;;;;;;11.50;9.23;;;;;;;19.44;100.00;101107.28;5032892;28;20423;-44
2022/08/18 03:21:50;;;;;;;11.07;9.90;;;;;;;19.44;100.00;101105.41;5032367;28;21034;-43
2022/08/18 03:24:19;;;;;;;11.70;10.20;;;;;;;19.46;100.00;101114.06;5032898;28;20459;-45
2022/08/18 03:26:49;;;;;;;10.47;9.17;;;;;;;19.51;100.00;101111.44;5032781;28;20554;-44
2022/08/18 03:29:17;;;;;;;15.23;10.63;;;;;;;19.55;100.00;101128.00;5032816;28;20431;-44
2022/08/18 03:31:47;;;;;;;17.23;11.97;;;;;;;19.60;100.00;101131.59;5032871;28;20468;-42
2022/08/18 03:34:18;;;;;;;17.60;12.50;;;;;;;19.61;100.00;101137.84;5033298;28;20431;-42
2022/08/18 03:36:46;;;;;;;25.27;13.23;;;;;;;19.61;100.00;101127.84;5033875;28;20513;-44
2022/08/18 03:39:14;;;;;;;18.30;12.60;;;;;;;19.62;100.00;101131.38;5033557;28;20427;-42
2022/08/18 03:41:44;;;;;;;15.00;13.50;;;;;;;19.62;100.00;101124.06;5032332;28;20833;-42
2022/08/18 03:44:26;;;;;;;19.97;13.27;;;;;;;19.61;100.00;101119.72;5033528;28;20431;-42
2022/08/18 03:46:56;;;;;;;16.47;14.73;;;;;;;19.62;100.00;101136.78;5031448;28;20668;-41
2022/08/18 03:49:23;;;;;;;18.40;16.23;;;;;;;19.58;100.00;101132.91;5031995;28;20428;-42
2022/08/18 03:51:51;;;;;;;18.57;16.60;;;;;;;19.58;100.00;101135.63;5032175;28;20459;-42
2022/08/18 03:54:19;;;;;;;23.63;18.10;;;;;;;19.56;100.00;101135.06;5032075;28;20808;-42
2022/08/18 03:56:48;;;;;;;23.37;19.73;;;;;;;19.55;100.00;101138.81;5032952;28;20452;-45
2022/08/18 03:59:19;;;;;;;21.80;19.50;;;;;;;19.49;100.00;101143.34;5032734;28;20445;-44
2022/08/18 04:01:49;;;;;;;22.83;19.50;;;;;;;19.48;100.00;101141.69;5032646;28;20464;-41
2022/08/18 04:04:21;;;;;;;26.07;20.20;;;;;;;19.43;100.00;101143.50;5032798;28;20427;-44
2022/08/18 04:06:53;;;;;;;22.80;20.43;;;;;;;19.40;100.00;101146.69;5032535;28;20486;-42
2022/08/18 04:09:23;;;;;;;25.40;21.77;;;;;;;19.36;100.00;101140.91;5032874;28;20518;-42
2022/08/18 04:11:51;;;;;;;26.00;22.90;;;;;;;19.39;100.00;101143.16;5032036;28;20472;-46
2022/08/18 04:14:23;;;;;;;28.70;24.47;;;;;;;19.41;100.00;101141.03;5032485;28;20447;-42
2022/08/18 04:16:51;;;;;;;22.77;20.67;;;;;;;19.45;100.00;101144.06;5032456;28;20463;-43
2022/08/18 04:19:20;;;;;;;23.53;21.10;;;;;;;19.49;100.00;101139.81;5032714;28;20438;-43
2022/08/18 04:21:55;;;;;;;28.40;24.50;;;;;;;19.50;100.00;101145.00;5032232;28;20463;-45
2022/08/18 04:24:24;;;;;;;22.47;20.17;;;;;;;19.54;100.00;101140.72;5032035;28;20432;-42
2022/08/18 04:26:52;;;;;;;30.30;22.80;;;;;;;19.58;100.00;101132.91;5032457;28;20479;-42
2022/08/18 04:29:20;;;;;;;25.30;22.70;;;;;;;19.58;100.00;101124.81;5032684;28;20475;-42
2022/08/18 04:31:50;;;;;;;26.47;22.40;;;;;;;19.64;100.00;101131.94;5032082;28;20463;-42
2022/08/18 04:34:19;;;;;;;26.97;24.33;;;;;;;19.66;100.00;101130.63;5032146;28;20869;-45
2022/08/18 04:36:52;;;;;;;28.40;25.37;;;;;;;19.70;100.00;101130.94;5032289;28;20487;-41
2022/08/18 04:39:21;;;;;;;26.47;23.30;;;;;;;19.72;100.00;101139.63;5032556;28;20439;-43
2022/08/18 04:41:49;;;;;;;27.37;22.43;;;;;;;19.72;100.00;101134.22;5032181;28;20459;-41
2022/08/18 04:44:18;;;;;;;23.47;20.73;;;;;;;19.70;100.00;101139.91;5032273;28;20774;-43
2022/08/18 04:46:48;;;;;;;22.30;20.10;;;;;;;19.78;100.00;101123.22;5032015;28;20459;-42
2022/08/18 04:49:17;;;;;;;20.83;18.83;;;;;;;19.84;100.00;101134.94;5032183;28;20427;-45
2022/08/18 04:53:43;;;;;;;20.03;17.87;;;;;;;19.90;100.00;101131.25;5031992;28;20467;-42
2022/08/18 04:54:55;;;;;;;20.10;18.17;;;;;;;19.98;100.00;101119.19;5036018;28;20439;-46
2022/08/18 04:57:23;;;;;;;19.37;17.60;;;;;;;20.06;100.00;101122.28;5036292;28;20769;-43
2022/08/18 04:59:52;;;;;;;20.33;18.17;;;;;;;20.13;100.00;101122.13;5036046;28;20815;-42
2022/08/18 05:02:21;;;;;;;19.83;16.20;;;;;;;20.18;100.00;101117.59;5035212;28;20467;-42
2022/08/18 05:04:50;;;;;;;19.57;17.63;;;;;;;20.26;100.00;101113.63;5036249;28;20443;-44
2022/08/18 05:07:22;;;;;;;20.67;16.57;;;;;;;20.35;100.00;101107.53;5035940;28;20479;-41
2022/08/18 05:09:50;;;;;;;18.30;16.60;;;;;;;20.45;100.00;101109.56;5036167;28;20438;-42
2022/08/18 05:12:18;;;;;;;18.07;16.30;;;;;;;20.58;100.00;101111.06;5035273;28;20463;-42
2022/08/18 05:14:52;;;;;;;18.67;14.27;;;;;;;20.66;100.00;101118.75;5036494;28;20806;-43
2022/08/18 05:17:20;;;;;;;16.47;14.70;;;;;;;20.80;100.00;101125.41;5035817;28;20463;-42
2022/08/18 05:19:48;;;;;;;15.40;14.03;;;;;;;21.26;100.00;101130.25;5035877;28;20435;-43
2022/08/18 05:22:18;;;;;;;13.60;12.17;;;;;;;21.68;100.00;101129.50;5034736;28;20465;-42
2022/08/18 05:24:56;;;;;;;13.53;12.23;;;;;;;22.39;100.00;101128.03;5035877;28;21006;-42
2022/08/18 05:27:24;;;;;;;14.53;13.37;;;;;;;22.81;100.00;101117.91;5035877;28;20497;-42
2022/08/18 05:29:52;;;;;;;13.03;11.63;;;;;;;23.20;100.00;101126.41;5035991;28;20522;-42
2022/08/18 05:32:19;;;;;;;11.70;10.90;;;;;;;23.52;100.00;101126.97;5034966;28;20467;-42
2022/08/18 05:35:12;;;;;;;12.73;11.53;;;;;;;24.06;100.00;101120.91;5035708;28;21076;-44
2022/08/18 05:37:50;;;;;;;12.83;11.63;;;;;;;24.44;93.78;101116.69;5035787;28;20447;-42
2022/08/18 05:40:23;;;;;;;11.50;10.60;;;;;;;24.89;89.73;101126.59;5035664;28;20801;-42
2022/08/18 05:42:51;;;;;;;13.13;12.10;;;;;;;25.17;86.27;101121.25;5035043;28;20494;-44
2022/08/18 05:45:20;;;;;;;13.40;11.80;;;;;;;25.37;82.92;101127.63;5035734;28;20434;-44
2022/08/18 05:47:48;;;;;;;13.37;12.20;;;;;;;25.64;81.02;101120.59;5035801;28;20570;-44
2022/08/18 05:50:19;;;;;;;13.20;11.93;;;;;;;25.85;80.01;101110.28;5035713;28;20461;-42
2022/08/18 05:52:52;;;;;;;13.33;12.20;;;;;;;26.03;74.89;101111.44;5035024;28;20463;-43
2022/08/18 05:58:18;;;;;;;16.00;11.17;;;;;;;26.46;77.42;101113.16;5035537;28;20455;-42
2022/08/18 06:00:51;;;;;;;12.93;11.80;;;;;;;26.52;74.05;101117.47;5035635;28;20438;-43
2022/08/18 06:03:32;;;;;;;12.57;11.57;;;;;;;26.73;71.95;101118.78;5035155;28;20956;-45
2022/08/18 06:06:18;;;;;;;12.03;11.13;;;;;;;26.91;72.88;101119.97;5034733;28;20451;-44
2022/08/18 06:08:58;;;;;;;13.03;11.93;;;;;;;27.29;70.11;101123.47;5035488;28;20534;-42
2022/08/18 06:11:27;;;;;;;11.20;10.10;;;;;;;27.46;64.37;101110.06;5035093;28;20457;-44
2022/08/18 06:13:55;;;;;;;12.90;11.80;;;;;;;27.75;70.53;101123.53;5035109;28;20435;-42
2022/08/18 06:16:39;;;;;;;10.90;10.00;;;;;;;28.01;68.05;101116.47;5035077;28;20506;-43
2022/08/18 06:19:22;;;;;;;11.57;10.70;;;;;;;28.20;69.14;101121.88;5035567;28;20438;-42
2022/08/18 06:21:56;;;;;;;13.03;11.97;;;;;;;28.21;65.63;101129.81;5035008;28;20459;-44
2022/08/18 06:24:35;;;;;;;10.97;9.97;;;;;;;28.48;63.79;101118.81;5034880;28;20435;-43
2022/08/18 06:27:13;;;;;;;12.67;11.67;;;;;;;28.62;66.24;101120.72;5034973;28;20794;-43
2022/08/18 06:29:58;;;;;;;12.50;11.00;;;;;;;28.78;65.56;101122.88;5035007;28;20981;-42
2022/08/18 06:32:44;;;;;;;10.93;9.90;;;;;;;28.56;61.29;101131.00;5034134;28;20464;-44
2022/08/18 06:35:18;;;;;;;11.40;10.70;;;;;;;28.81;62.23;101116.75;5034891;28;20923;-43
2022/08/18 06:40:42;;;;;;;13.37;11.87;;;;;;;28.82;62.33;101129.34;5034637;28;20427;-43
2022/08/18 06:43:15;;;;;;;12.77;11.67;;;;;;;28.71;62.80;101136.19;5033823;28;20456;-42
2022/08/18 06:45:47;;;;;;;12.27;11.27;;;;;;;28.68;60.96;101128.56;5034672;28;20434;-44
2022/08/18 06:48:25;;;;;;;11.93;11.03;;;;;;;29.04;60.01;101132.16;5034680;28;20479;-43
2022/08/18 06:50:55;;;;;;;11.40;10.50;;;;;;;29.35;60.16;101129.50;5034694;28;20427;-43
2022/08/18 06:53:50;;;;;;;10.73;10.00;;;;;;;29.41;60.00;101127.44;5034157;28;20832;-44
2022/08/18 06:56:24;;;;;;;10.87;10.07;;;;;;;28.90;60.37;101128.63;5034616;28;20795;-44
2022/08/18 06:59:13;;;;;;;11.13;10.30;;;;;;;28.52;60.62;101127.25;5034427;28;20431;-42
2022/08/18 07:01:40;;;;;;;10.63;9.70;;;;;;;28.32;61.12;101136.72;5033627;28;20463;-43
2022/08/18 07:04:08;;;;;;;10.80;9.90;;;;;;;28.08;60.61;101141.56;5033793;28;20953;-45
2022/08/18 07:06:37;;;;;;;13.33;12.03;;;;;;;28.30;60.92;101143.63;5034133;28;20455;-43
2022/08/18 07:09:19;;;;;;;11.63;10.83;;;;;;;28.13;60.73;101140.69;5033813;28;20477;-42
2022/08/18 07:12:04;;;;;;;12.73;11.53;;;;;;;27.74;62.76;101136.44;5033681;28;20467;-42
2022/08/18 07:14:42;;;;;;;13.27;10.83;;;;;;;27.78;63.78;101136.63;5033377;28;20530;-42
2022/08/18 07:17:13;;;;;;;12.33;11.33;;;;;;;27.89;63.00;101141.66;5032811;28;20463;-44
2022/08/18 07:19:41;;;;;;;12.07;11.10;;;;;;;28.15;64.29;101147.47;5034561;28;20434;-42
2022/08/18 07:22:11;;;;;;;12.07;11.17;;;;;;;28.28;61.96;101145.88;5033540;28;20471;-42
2022/08/18 07:24:42;;;;;;;12.47;11.30;;;;;;;28.34;63.54;101152.88;5034193;28;20434;-43
2022/08/18 07:27:12;;;;;;;11.07;10.37;;;;;;;28.48;61.48;101156.41;5033749;28;20459;-42
2022/08/18 07:30:00;;;;;;;10.60;10.00;;;;;;;28.47;61.21;101141.88;5033364;28;20571;-42
2022/08/18 07:32:33;;;;;;;10.27;9.63;;;;;;;28.49;62.19;101152.56;5033196;28;20833;-43
2022/08/18 07:35:03;;;;;;;11.60;10.60;;;;;;;28.07;60.32;101137.22;5033578;28;20829;-43
2022/08/18 07:37:39;;;;;;;11.30;10.30;;;;;;;27.43;61.97;101144.34;5033344;28;20456;-43
2022/08/18 07:40:19;;;;;;;11.70;10.30;;;;;;;27.38;63.89;101149.06;5033128;28;20434;-44
2022/08/18 07:42:53;;;;;;;10.83;10.00;;;;;;;27.20;63.92;101147.16;5032340;28;20899;-44
2022/08/18 07:45:35;;;;;;;11.67;10.73;;;;;;;26.75;63.88;101143.97;5034264;28;20975;-42
2022/08/18 07:48:10;;;;;;;10.23;9.53;;;;;;;26.79;65.27;101144.19;5033812;28;20455;-44
2022/08/18 07:51:07;;;;;;;11.60;10.60;;;;;;;26.49;67.95;101150.06;5033679;28;20431;-44
2022/08/18 07:53:47;;;;;;;11.17;10.50;;;;;;;26.59;68.05;101145.25;5033566;28;20462;-43
2022/08/18 07:56:31;;;;;;;10.33;9.50;;;;;;;26.35;66.98;101152.66;5034081;28;20555;-42
2022/08/18 07:59:07;;;;;;;11.00;10.30;;;;;;;26.07;67.54;101156.25;5033704;28;20798;-42
2022/08/18 08:01:44;;;;;;;11.97;11.17;;;;;;;26.04;68.95;101154.91;5033857;28;20852;-45
2022/08/18 08:04:17;;;;;;;11.43;10.47;;;;;;;25.98;70.16;101149.78;5033539;28;20423;-43
2022/08/18 08:06:59;;;;;;;10.90;10.20;;;;;;;26.29;69.44;101148.34;5033402;28;20460;-42
2022/08/18 08:09:57;;;;;;;12.90;11.83;;;;;;;26.43;68.83;101149.31;5033574;28;20475;-44
2022/08/18 08:12:36;;;;;;;10.93;10.33;;;;;;;26.56;67.86;101159.50;5032831;28;20474;-42
2022/08/18 08:15:16;;;;;;;12.90;11.87;;;;;;;26.71;67.42;101151.13;5033473;28;20428;-43
2022/08/18 08:17:53;;;;;;;10.60;9.90;;;;;;;27.15;66.27;101160.94;5033207;28;20894;-45
2022/08/18 08:20:27;;;;;;;10.60;9.90;;;;;;;27.44;66.50;101165.16;5032938;28;20428;-45
2022/08/18 08:23:09;;;;;;;11.13;10.33;;;;;;;27.59;65.71;101158.63;5032729;28;20494;-46
2022/08/18 08:25:46;;;;;;;11.57;10.77;;;;;;;27.48;64.16;101159.09;5033737;28;20433;-43
2022/08/18 08:28:26;;;;;;;12.10;11.00;;;;;;;27.50;62.07;101162.34;5032701;28;20455;-43
2022/08/18 08:31:03;;;;;;;11.00;10.30;;;;;;;27.56;61.29;101159.22;5032936;28;20925;-45
2022/08/18 08:33:58;;;;;;;11.77;11.13;;;;;;;27.80;63.57;101157.16;5032527;28;20447;-44
2022/08/18 08:36:36;;;;;;;11.80;10.80;;;;;;;27.46;62.80;101162.94;5032921;28;20451;-44
2022/08/18 08:39:06;;;;;;;11.73;10.60;;;;;;;27.55;62.35;101165.81;5033081;28;20515;-45
2022/08/18 08:41:39;;;;;;;13.00;10.80;;;;;;;27.39;63.26;101159.72;5032453;28;20459;-44
2022/08/18 08:44:13;;;;;;;11.10;10.30;;;;;;;27.29;62.94;101165.38;5033070;28;20758;-45
2022/08/18 08:46:47;;;;;;;11.03;10.37;;;;;;;27.39;63.29;101147.94;5032859;28;20813;-42
2022/08/18 08:49:30;;;;;;;14.80;13.00;;;;;;;27.43;61.97;101151.75;5032867;28;20482;-43
2022/08/18 08:52:03;;;;;;;10.03;9.43;;;;;;;27.62;61.64;101148.97;5032551;28;20501;-44
2022/08/18 08:54:44;;;;;;;9.90;9.30;;;;;;;27.29;63.07;101140.72;5032847;28;20427;-42
2022/08/18 08:57:13;;;;;;;12.63;11.73;;;;;;;27.44;62.95;101147.91;5032888;28;20817;-45
2022/08/18 08:59:45;;;;;;;11.50;10.80;;;;;;;27.44;62.04;101147.91;5032694;28;20944;-43
2022/08/18 09:02:45;;;;;;;11.20;10.40;;;;;;;27.13;64.83;101147.53;5032074;28;21111;-45
2022/08/18 09:05:19;;;;;;;11.23;10.40;;;;;;;27.30;63.49;101150.56;5033035;28;20423;-44
2022/08/18 09:08:08;;;;;;;10.80;10.20;;;;;;;27.20;62.83;101148.00;5032835;28;20542;-44
2022/08/18 09:11:00;;;;;;;12.13;11.20;;;;;;;26.77;63.75;101147.19;5032653;28;20503;-45
2022/08/18 09:13:58;;;;;;;12.17;11.37;;;;;;;25.96;66.61;101152.78;5031974;28;20454;-44
2022/08/18 09:16:41;;;;;;;12.77;11.50;;;;;;;26.31;68.08;101152.44;5032512;28;20467;-42
2022/08/18 09:19:29;;;;;;;12.80;11.90;;;;;;;26.70;66.09;101141.28;5032598;28;20431;-45
2022/08/18 09:22:04;;;;;;;13.20;12.23;;;;;;;26.96;63.41;101149.16;5031897;28;20474;-42
2022/08/18 09:24:39;;;;;;;11.57;10.77;;;;;;;27.31;63.92;101145.88;5032852;28;20439;-42
2022/08/18 09:27:25;;;;;;;11.10;10.30;;;;;;;27.48;63.32;101153.63;5032640;28;20461;-46
2022/08/18 09:29:55;;;;;;;10.30;9.70;;;;;;;27.77;61.22;101149.53;5032522;28;20558;-43
2022/08/18 09:32:40;;;;;;;11.00;10.30;;;;;;;28.45;60.63;101144.13;5031780;28;20885;-43
2022/08/18 09:35:22;;;;;;;13.03;12.20;;;;;;;28.96;55.49;101132.88;5032216;28;20933;-44
2022/08/18 09:43:53;;;;;;;11.73;10.63;;;;;;;29.33;52.09;101136.44;5035990;28;20813;-44
2022/08/18 09:46:50;;;;;;;10.27;9.57;;;;;;;29.07;54.02;101136.19;5036003;28;20790;-45
2022/08/18 09:49:42;;;;;;;12.47;11.57;;;;;;;28.01;58.45;101136.47;5034588;28;20801;-42
2022/08/18 09:52:54;;;;;;;11.93;11.03;;;;;;;28.18;57.17;101141.38;5034161;28;20464;-42
2022/08/18 09:55:43;;;;;;;12.60;11.70;;;;;;;27.76;59.42;101136.94;5034587;28;20497;-43
2022/08/18 09:58:20;;;;;;;12.77;11.90;;;;;;;27.28;62.57;101150.03;5034490;28;20956;-43
2022/08/18 10:01:35;;;;;;;12.57;11.87;;;;;;;27.33;61.73;101138.19;5034747;28;20485;-47
2022/08/18 10:04:29;;;;;;;13.27;12.17;;;;;;;26.95;62.52;101142.88;4988716;28;20451;-44
2022/08/18 10:07:20;;;;;;;14.43;13.33;;;;;;;26.94;64.53;101144.78;5034670;28;20466;-42
2022/08/18 10:10:03;;;;;;;12.73;12.03;;;;;;;27.11;62.49;101136.09;5034328;28;20498;-44
2022/08/18 10:13:02;;;;;;;12.80;12.10;;;;;;;26.82;63.25;101136.22;5033781;28;20459;-48
2022/08/18 10:15:41;;;;;;;12.27;11.47;;;;;;;26.88;63.37;101132.28;5034320;28;20428;-43
2022/08/18 10:18:30;;;;;;;13.03;12.03;;;;;;;27.27;61.87;101125.72;5034043;28;20467;-47
2022/08/18 10:21:07;;;;;;;12.53;11.63;;;;;;;27.11;64.50;101122.41;5034264;28;20428;-42
2022/08/18 10:24:00;;;;;;;13.00;11.87;;;;;;;26.71;64.99;101128.41;5033819;28;20798;-43
2022/08/18 10:27:11;;;;;;;12.70;11.70;;;;;;;26.88;62.98;101129.56;5030302;28;20470;-44
2022/08/18 10:29:54;;;;;;;13.60;12.50;;;;;;;27.12;62.75;101123.22;5033878;28;20844;-46
2022/08/18 10:32:44;;;;;;;13.20;12.40;;;;;;;27.24;61.34;101121.63;5033467;28;20467;-42
2022/08/18 10:36:04;;;;;;;13.40;12.50;;;;;;;26.67;64.16;101127.38;5034101;28;20435;-43
2022/08/18 10:38:41;;;;;;;14.60;13.30;;;;;;;26.63;63.80;101127.16;5033762;28;20428;-45
2022/08/18 10:41:29;;;;;;;13.30;12.53;;;;;;;26.45;63.77;101122.47;5033235;28;20427;-47
2022/08/18 10:43:59;;;;;;;13.60;12.57;;;;;;;26.43;64.92;101119.22;5033647;28;20432;-45
2022/08/18 10:46:35;;;;;;;12.90;12.10;;;;;;;26.42;64.90;101116.75;5033719;28;20456;-42
2022/08/18 10:49:24;;;;;;;14.47;13.30;;;;;;;26.44;63.94;101117.28;5033508;28;20952;-45
2022/08/18 10:52:28;;;;;;;15.63;14.60;;;;;;;26.28;66.03;101120.19;5032830;28;20799;-42
2022/08/18 10:55:12;;;;;;;13.53;12.67;;;;;;;26.30;65.03;101114.44;5030403;28;20442;-43
2022/08/18 10:58:04;;;;;;;14.43;13.23;;;;;;;26.22;66.05;101126.81;5033442;28;20460;-43
2022/08/18 11:00:44;;;;;;;14.83;13.63;;;;;;;26.18;66.83;101125.81;5033633;28;20455;-44
2022/08/18 11:03:27;;;;;;;14.43;13.40;;;;;;;26.32;66.48;101124.00;5032680;28;20467;-44
2022/08/18 11:06:18;;;;;;;13.60;12.50;;;;;;;26.35;66.66;101125.31;5033266;28;20452;-44
2022/08/18 11:08:51;;;;;;;14.53;13.50;;;;;;;26.60;65.02;101127.75;5033218;28;20432;-43
2022/08/18 11:11:29;;;;;;;12.97;12.07;;;;;;;27.14;63.08;101123.72;5032866;28;20553;-42
2022/08/18 11:14:15;;;;;;;12.50;11.73;;;;;;;27.05;64.66;101125.50;5033039;28;20600;-45
2022/08/18 11:16:53;;;;;;;13.40;12.57;;;;;;;27.50;61.56;101124.81;5032692;28;20518;-47
2022/08/18 11:19:23;;;;;;;12.13;11.30;;;;;;;27.20;63.41;101126.09;5033197;28;20431;-43
2022/08/18 11:21:52;;;;;;;13.53;12.63;;;;;;;26.98;64.29;101127.78;5032538;28;20558;-46
2022/08/18 11:24:23;;;;;;;14.70;13.50;;;;;;;27.37;63.04;101120.88;5032807;28;20949;-44
2022/08/18 11:26:54;;;;;;;14.00;12.83;;;;;;;27.55;61.94;101137.59;5032917;28;20465;-44
2022/08/18 11:29:29;;;;;;;13.07;12.17;;;;;;;27.76;61.65;101127.91;5032708;28;20431;-40
2022/08/18 11:32:05;;;;;;;12.90;12.00;;;;;;;27.75;61.35;101127.09;5032356;28;20474;-46
2022/08/18 11:34:42;;;;;;;12.93;12.00;;;;;;;27.82;60.71;101130.25;5032777;28;20992;-46
2022/08/18 11:37:37;;;;;;;12.03;11.23;;;;;;;27.56;60.12;101139.22;5032487;28;20996;-43
2022/08/18 11:40:33;;;;;;;11.97;11.17;;;;;;;27.67;60.70;101129.72;5032950;28;20428;-43
2022/08/18 11:43:26;;;;;;;14.00;13.10;;;;;;;27.70;60.53;101129.91;5032179;28;20455;-43
2022/08/18 11:46:13;;;;;;;11.80;11.10;;;;;;;27.79;62.06;101124.56;5032306;28;20431;-43
2022/08/18 11:48:45;;;;;;;12.83;12.03;;;;;;;27.99;60.04;101126.91;5032711;28;20423;-46
2022/08/18 11:51:24;;;;;;;12.10;10.93;;;;;;;28.20;59.77;101124.63;5032018;28;20490;-46
2022/08/18 11:53:57;;;;;;;11.80;11.00;;;;;;;28.07;58.91;101118.03;5032179;28;20427;-46
2022/08/18 11:56:28;;;;;;;13.40;12.50;;;;;;;27.81;60.09;101128.63;5032474;28;21150;-43
2022/08/18 11:59:00;;;;;;;15.23;13.33;;;;;;;27.57;61.03;101117.00;5032496;28;20507;-45
2022/08/18 12:01:38;;;;;;;13.93;12.93;;;;;;;27.55;61.44;101119.22;5031961;28;20462;-48
2022/08/18 12:04:16;;;;;;;14.17;12.97;;;;;;;27.24;62.53;101126.31;5031516;28;20519;-48